sensor_id;sensor_type;location;lat;lon;timestamp;temperature;humidity
74534;SHT31;63012;51.096;-115.366;2023-05-16T00:00:41;22.35;33.48
74534;SHT31;63012;51.096;-115.366;2023-05-16T00:03:08;22.38;33.41
74534;SHT31;63012;51.096;-115.366;2023-05-16T00:05:36;22.39;33.39
74534;SHT31;63012;51.096;-115.366;2023-05-16T00:08:03;22.41;33.38
74534;SHT31;63012;51.096;-115.366;2023-05-16T00:10:30;22.42;33.32
74534;SHT31;63012;51.096;-115.366;2023-05-16T00:12:58;22.44;33.30
74534;SHT31;63012;51.096;-115.366;2023-05-16T00:15:26;22.46;33.20
74534;SHT31;63012;51.096;-115.366;2023-05-16T00:17:57;22.48;33.06
74534;SHT31;63012;51.096;-115.366;2023-05-16T00:20:25;22.50;33.01
74534;SHT31;63012;51.096;-115.366;2023-05-16T00:22:53;22.51;32.86
74534;SHT31;63012;51.096;-115.366;2023-05-16T00:25:22;22.54;32.81
74534;SHT31;63012;51.096;-115.366;2023-05-16T00:27:48;22.56;32.81
74534;SHT31;63012;51.096;-115.366;2023-05-16T00:30:15;22.58;32.79
74534;SHT31;63012;51.096;-115.366;2023-05-16T00:32:42;22.61;32.80
74534;SHT31;63012;51.096;-115.366;2023-05-16T00:35:09;22.63;32.79
74534;SHT31;63012;51.096;-115.366;2023-05-16T00:37:37;22.67;32.75
74534;SHT31;63012;51.096;-115.366;2023-05-16T00:40:05;22.69;32.76
74534;SHT31;63012;51.096;-115.366;2023-05-16T00:42:32;22.71;32.79
74534;SHT31;63012;51.096;-115.366;2023-05-16T00:44:59;22.73;32.79
74534;SHT31;63012;51.096;-115.366;2023-05-16T00:47:26;22.74;32.81
74534;SHT31;63012;51.096;-115.366;2023-05-16T00:49:53;22.76;32.80
74534;SHT31;63012;51.096;-115.366;2023-05-16T00:52:21;22.78;32.77
74534;SHT31;63012;51.096;-115.366;2023-05-16T00:54:50;22.80;32.79
74534;SHT31;63012;51.096;-115.366;2023-05-16T00:57:17;22.81;32.80
74534;SHT31;63012;51.096;-115.366;2023-05-16T00:59:45;22.83;32.80
74534;SHT31;63012;51.096;-115.366;2023-05-16T01:02:12;22.84;32.81
74534;SHT31;63012;51.096;-115.366;2023-05-16T01:04:40;22.86;32.81
74534;SHT31;63012;51.096;-115.366;2023-05-16T01:07:09;22.87;32.85
74534;SHT31;63012;51.096;-115.366;2023-05-16T01:09:36;22.90;32.88
74534;SHT31;63012;51.096;-115.366;2023-05-16T01:20:52;22.95;33.07
74534;SHT31;63012;51.096;-115.366;2023-05-16T01:26:26;22.99;33.10
74534;SHT31;63012;51.096;-115.366;2023-05-16T01:28:54;23.00;33.13
74534;SHT31;63012;51.096;-115.366;2023-05-16T01:31:21;23.02;33.15
74534;SHT31;63012;51.096;-115.366;2023-05-16T01:33:49;23.04;33.17
74534;SHT31;63012;51.096;-115.366;2023-05-16T01:42:36;23.09;33.19
74534;SHT31;63012;51.096;-115.366;2023-05-16T01:44:49;23.10;33.20
74534;SHT31;63012;51.096;-115.366;2023-05-16T01:47:33;23.11;33.20
74534;SHT31;63012;51.096;-115.366;2023-05-16T01:50:07;23.14;33.24
74534;SHT31;63012;51.096;-115.366;2023-05-16T01:55:22;23.17;33.20
74534;SHT31;63012;51.096;-115.366;2023-05-16T01:58:10;23.18;33.21
74534;SHT31;63012;51.096;-115.366;2023-05-16T02:00:40;23.19;33.20
74534;SHT31;63012;51.096;-115.366;2023-05-16T02:03:08;23.22;33.19
74534;SHT31;63012;51.096;-115.366;2023-05-16T02:05:35;23.23;33.16
74534;SHT31;63012;51.096;-115.366;2023-05-16T02:08:01;23.24;33.12
74534;SHT31;63012;51.096;-115.366;2023-05-16T02:10:29;23.26;33.17
74534;SHT31;63012;51.096;-115.366;2023-05-16T02:12:56;23.28;33.19
74534;SHT31;63012;51.096;-115.366;2023-05-16T02:15:23;23.29;33.18
74534;SHT31;63012;51.096;-115.366;2023-05-16T02:17:50;23.31;33.19
74534;SHT31;63012;51.096;-115.366;2023-05-16T02:20:17;23.31;33.22
74534;SHT31;63012;51.096;-115.366;2023-05-16T02:22:44;23.33;33.24
74534;SHT31;63012;51.096;-115.366;2023-05-16T02:25:12;23.33;33.29
74534;SHT31;63012;51.096;-115.366;2023-05-16T02:27:41;23.36;33.35
74534;SHT31;63012;51.096;-115.366;2023-05-16T02:30:11;23.37;33.41
74534;SHT31;63012;51.096;-115.366;2023-05-16T02:32:38;23.38;33.52
74534;SHT31;63012;51.096;-115.366;2023-05-16T02:35:09;23.38;33.62
74534;SHT31;63012;51.096;-115.366;2023-05-16T02:37:36;23.39;33.70
74534;SHT31;63012;51.096;-115.366;2023-05-16T02:40:04;23.40;33.73
74534;SHT31;63012;51.096;-115.366;2023-05-16T02:42:32;23.41;33.79
74534;SHT31;63012;51.096;-115.366;2023-05-16T02:44:59;23.42;33.80
74534;SHT31;63012;51.096;-115.366;2023-05-16T02:47:26;23.43;33.90
74534;SHT31;63012;51.096;-115.366;2023-05-16T02:49:53;23.44;34.01
74534;SHT31;63012;51.096;-115.366;2023-05-16T02:52:20;23.45;34.17
74534;SHT31;63012;51.096;-115.366;2023-05-16T02:54:47;23.46;34.25
74534;SHT31;63012;51.096;-115.366;2023-05-16T02:57:14;23.47;34.34
74534;SHT31;63012;51.096;-115.366;2023-05-16T02:59:41;23.48;34.45
74534;SHT31;63012;51.096;-115.366;2023-05-16T03:02:08;23.48;34.51
74534;SHT31;63012;51.096;-115.366;2023-05-16T03:04:35;23.49;34.57
74534;SHT31;63012;51.096;-115.366;2023-05-16T03:07:02;23.50;34.60
74534;SHT31;63012;51.096;-115.366;2023-05-16T03:09:29;23.51;34.60
74534;SHT31;63012;51.096;-115.366;2023-05-16T03:11:56;23.51;34.64
74534;SHT31;63012;51.096;-115.366;2023-05-16T03:14:23;23.52;34.69
74534;SHT31;63012;51.096;-115.366;2023-05-16T03:16:50;23.53;34.76
74534;SHT31;63012;51.096;-115.366;2023-05-16T03:19:17;23.54;34.82
74534;SHT31;63012;51.096;-115.366;2023-05-16T03:21:44;23.55;35.02
74534;SHT31;63012;51.096;-115.366;2023-05-16T03:24:11;23.55;35.05
74534;SHT31;63012;51.096;-115.366;2023-05-16T03:26:38;23.56;35.03
74534;SHT31;63012;51.096;-115.366;2023-05-16T03:29:05;23.56;34.92
74534;SHT31;63012;51.096;-115.366;2023-05-16T03:31:32;23.56;34.87
74534;SHT31;63012;51.096;-115.366;2023-05-16T03:33:59;23.56;34.84
74534;SHT31;63012;51.096;-115.366;2023-05-16T03:36:26;23.57;34.72
74534;SHT31;63012;51.096;-115.366;2023-05-16T03:38:53;23.56;34.63
74534;SHT31;63012;51.096;-115.366;2023-05-16T03:41:20;23.56;34.56
74534;SHT31;63012;51.096;-115.366;2023-05-16T03:43:47;23.55;34.48
74534;SHT31;63012;51.096;-115.366;2023-05-16T03:46:14;23.54;34.42
74534;SHT31;63012;51.096;-115.366;2023-05-16T03:48:41;23.53;34.33
74534;SHT31;63012;51.096;-115.366;2023-05-16T03:51:08;23.53;34.24
74534;SHT31;63012;51.096;-115.366;2023-05-16T03:53:35;23.54;34.29
74534;SHT31;63012;51.096;-115.366;2023-05-16T03:56:02;23.54;34.22
74534;SHT31;63012;51.096;-115.366;2023-05-16T03:58:30;23.53;34.16
74534;SHT31;63012;51.096;-115.366;2023-05-16T04:00:56;23.50;34.11
74534;SHT31;63012;51.096;-115.366;2023-05-16T04:03:24;23.48;34.16
74534;SHT31;63012;51.096;-115.366;2023-05-16T04:05:53;23.45;34.09
74534;SHT31;63012;51.096;-115.366;2023-05-16T04:08:21;23.41;33.95
74534;SHT31;63012;51.096;-115.366;2023-05-16T04:10:47;23.37;33.92
74534;SHT31;63012;51.096;-115.366;2023-05-16T04:13:15;23.33;34.10
74534;SHT31;63012;51.096;-115.366;2023-05-16T04:15:42;23.29;34.18
74534;SHT31;63012;51.096;-115.366;2023-05-16T04:18:09;23.26;34.27
74534;SHT31;63012;51.096;-115.366;2023-05-16T04:20:35;23.22;34.22
74534;SHT31;63012;51.096;-115.366;2023-05-16T04:23:02;23.18;34.24
74534;SHT31;63012;51.096;-115.366;2023-05-16T04:25:29;23.16;34.47
74534;SHT31;63012;51.096;-115.366;2023-05-16T04:27:57;23.13;34.61
74534;SHT31;63012;51.096;-115.366;2023-05-16T04:30:23;23.09;34.60
74534;SHT31;63012;51.096;-115.366;2023-05-16T04:32:52;23.07;34.47
74534;SHT31;63012;51.096;-115.366;2023-05-16T04:35:18;23.03;34.56
74534;SHT31;63012;51.096;-115.366;2023-05-16T04:37:46;23.00;34.73
74534;SHT31;63012;51.096;-115.366;2023-05-16T04:40:13;22.97;34.94
74534;SHT31;63012;51.096;-115.366;2023-05-16T04:42:41;22.95;35.09
74534;SHT31;63012;51.096;-115.366;2023-05-16T04:45:08;22.92;35.11
74534;SHT31;63012;51.096;-115.366;2023-05-16T04:47:36;22.90;35.16
74534;SHT31;63012;51.096;-115.366;2023-05-16T04:50:03;22.87;35.10
74534;SHT31;63012;51.096;-115.366;2023-05-16T04:52:31;22.84;34.96
74534;SHT31;63012;51.096;-115.366;2023-05-16T04:54:58;22.81;35.05
74534;SHT31;63012;51.096;-115.366;2023-05-16T04:57:25;22.77;35.20
74534;SHT31;63012;51.096;-115.366;2023-05-16T04:59:52;22.73;35.30
74534;SHT31;63012;51.096;-115.366;2023-05-16T05:02:19;22.69;35.40
74534;SHT31;63012;51.096;-115.366;2023-05-16T05:04:46;22.66;35.49
74534;SHT31;63012;51.096;-115.366;2023-05-16T05:07:14;22.62;35.64
74534;SHT31;63012;51.096;-115.366;2023-05-16T05:09:41;22.59;35.70
74534;SHT31;63012;51.096;-115.366;2023-05-16T05:12:08;22.56;35.44
74534;SHT31;63012;51.096;-115.366;2023-05-16T05:14:35;22.52;35.58
74534;SHT31;63012;51.096;-115.366;2023-05-16T05:17:02;22.50;35.76
74534;SHT31;63012;51.096;-115.366;2023-05-16T05:19:29;22.48;35.80
74534;SHT31;63012;51.096;-115.366;2023-05-16T05:21:55;22.46;35.71
74534;SHT31;63012;51.096;-115.366;2023-05-16T05:24:23;22.44;35.73
74534;SHT31;63012;51.096;-115.366;2023-05-16T05:26:50;22.43;35.63
74534;SHT31;63012;51.096;-115.366;2023-05-16T05:29:17;22.40;35.58
74534;SHT31;63012;51.096;-115.366;2023-05-16T05:31:44;22.37;35.56
74534;SHT31;63012;51.096;-115.366;2023-05-16T05:34:11;22.34;35.51
74534;SHT31;63012;51.096;-115.366;2023-05-16T05:36:38;22.32;35.54
74534;SHT31;63012;51.096;-115.366;2023-05-16T05:39:05;22.29;35.47
74534;SHT31;63012;51.096;-115.366;2023-05-16T05:41:33;22.26;35.55
74534;SHT31;63012;51.096;-115.366;2023-05-16T05:44:00;22.22;35.52
74534;SHT31;63012;51.096;-115.366;2023-05-16T05:46:27;22.20;35.62
74534;SHT31;63012;51.096;-115.366;2023-05-16T05:48:54;22.17;35.68
74534;SHT31;63012;51.096;-115.366;2023-05-16T05:51:21;22.13;35.70
74534;SHT31;63012;51.096;-115.366;2023-05-16T05:53:48;22.10;35.75
74534;SHT31;63012;51.096;-115.366;2023-05-16T05:56:16;22.08;35.89
74534;SHT31;63012;51.096;-115.366;2023-05-16T05:58:43;22.04;35.98
74534;SHT31;63012;51.096;-115.366;2023-05-16T06:01:10;22.01;35.99
74534;SHT31;63012;51.096;-115.366;2023-05-16T06:03:37;22.00;36.04
74534;SHT31;63012;51.096;-115.366;2023-05-16T06:06:05;21.98;36.11
74534;SHT31;63012;51.096;-115.366;2023-05-16T06:08:32;21.95;35.95
74534;SHT31;63012;51.096;-115.366;2023-05-16T06:10:59;21.92;35.99
74534;SHT31;63012;51.096;-115.366;2023-05-16T06:13:26;21.91;36.00
74534;SHT31;63012;51.096;-115.366;2023-05-16T06:15:53;21.89;36.00
74534;SHT31;63012;51.096;-115.366;2023-05-16T06:18:21;21.87;36.03
74534;SHT31;63012;51.096;-115.366;2023-05-16T06:20:48;21.84;36.04
74534;SHT31;63012;51.096;-115.366;2023-05-16T06:23:15;21.81;35.97
74534;SHT31;63012;51.096;-115.366;2023-05-16T06:25:42;21.79;36.01
74534;SHT31;63012;51.096;-115.366;2023-05-16T06:28:09;21.77;36.13
74534;SHT31;63012;51.096;-115.366;2023-05-16T06:30:36;21.73;36.26
74534;SHT31;63012;51.096;-115.366;2023-05-16T06:33:03;21.73;36.30
74534;SHT31;63012;51.096;-115.366;2023-05-16T06:35:30;21.69;36.30
74534;SHT31;63012;51.096;-115.366;2023-05-16T06:37:57;21.68;36.42
74534;SHT31;63012;51.096;-115.366;2023-05-16T06:40:24;21.66;36.33
74534;SHT31;63012;51.096;-115.366;2023-05-16T06:42:51;21.63;36.43
74534;SHT31;63012;51.096;-115.366;2023-05-16T06:45:18;21.61;36.36
74534;SHT31;63012;51.096;-115.366;2023-05-16T06:47:45;21.59;36.24
74534;SHT31;63012;51.096;-115.366;2023-05-16T06:50:12;21.56;36.29
74534;SHT31;63012;51.096;-115.366;2023-05-16T06:52:40;21.54;36.24
74534;SHT31;63012;51.096;-115.366;2023-05-16T06:55:07;21.51;36.13
74534;SHT31;63012;51.096;-115.366;2023-05-16T06:57:35;21.48;36.10
74534;SHT31;63012;51.096;-115.366;2023-05-16T07:00:02;21.46;36.02
74534;SHT31;63012;51.096;-115.366;2023-05-16T07:02:29;21.43;36.06
74534;SHT31;63012;51.096;-115.366;2023-05-16T07:04:56;21.40;36.15
74534;SHT31;63012;51.096;-115.366;2023-05-16T07:07:23;21.36;36.24
74534;SHT31;63012;51.096;-115.366;2023-05-16T07:09:50;21.35;36.17
74534;SHT31;63012;51.096;-115.366;2023-05-16T07:12:18;21.31;36.05
74534;SHT31;63012;51.096;-115.366;2023-05-16T07:14:45;21.29;36.19
74534;SHT31;63012;51.096;-115.366;2023-05-16T07:17:12;21.25;36.04
74534;SHT31;63012;51.096;-115.366;2023-05-16T07:19:39;21.22;35.96
74534;SHT31;63012;51.096;-115.366;2023-05-16T07:22:06;21.19;36.10
74534;SHT31;63012;51.096;-115.366;2023-05-16T07:24:33;21.16;36.11
74534;SHT31;63012;51.096;-115.366;2023-05-16T07:27:00;21.13;36.03
74534;SHT31;63012;51.096;-115.366;2023-05-16T07:29:27;21.12;36.13
74534;SHT31;63012;51.096;-115.366;2023-05-16T07:31:54;21.10;36.26
74534;SHT31;63012;51.096;-115.366;2023-05-16T07:34:22;21.08;36.29
74534;SHT31;63012;51.096;-115.366;2023-05-16T07:36:49;21.05;36.46
74534;SHT31;63012;51.096;-115.366;2023-05-16T07:39:16;21.04;36.54
74534;SHT31;63012;51.096;-115.366;2023-05-16T07:41:43;21.02;36.57
74534;SHT31;63012;51.096;-115.366;2023-05-16T07:44:10;21.01;36.36
74534;SHT31;63012;51.096;-115.366;2023-05-16T07:46:37;20.98;36.16
74534;SHT31;63012;51.096;-115.366;2023-05-16T07:49:04;20.96;36.34
74534;SHT31;63012;51.096;-115.366;2023-05-16T07:51:31;20.95;36.50
74534;SHT31;63012;51.096;-115.366;2023-05-16T07:53:58;20.94;36.49
74534;SHT31;63012;51.096;-115.366;2023-05-16T07:56:25;20.94;36.44
74534;SHT31;63012;51.096;-115.366;2023-05-16T07:58:52;20.92;36.40
74534;SHT31;63012;51.096;-115.366;2023-05-16T08:01:20;20.90;36.38
74534;SHT31;63012;51.096;-115.366;2023-05-16T08:03:46;20.88;36.38
74534;SHT31;63012;51.096;-115.366;2023-05-16T08:06:14;20.85;36.19
74534;SHT31;63012;51.096;-115.366;2023-05-16T08:08:41;20.83;36.21
74534;SHT31;63012;51.096;-115.366;2023-05-16T08:11:08;20.80;36.33
74534;SHT31;63012;51.096;-115.366;2023-05-16T08:13:35;20.79;36.41
74534;SHT31;63012;51.096;-115.366;2023-05-16T08:16:02;20.78;36.58
74534;SHT31;63012;51.096;-115.366;2023-05-16T08:18:29;20.77;36.69
74534;SHT31;63012;51.096;-115.366;2023-05-16T08:20:56;20.77;36.68
74534;SHT31;63012;51.096;-115.366;2023-05-16T08:23:23;20.76;36.60
74534;SHT31;63012;51.096;-115.366;2023-05-16T08:25:51;20.73;36.56
74534;SHT31;63012;51.096;-115.366;2023-05-16T08:28:19;20.71;36.42
74534;SHT31;63012;51.096;-115.366;2023-05-16T08:30:46;20.68;36.28
74534;SHT31;63012;51.096;-115.366;2023-05-16T08:33:13;20.65;36.13
74534;SHT31;63012;51.096;-115.366;2023-05-16T08:35:43;20.61;35.97
74534;SHT31;63012;51.096;-115.366;2023-05-16T08:38:10;20.57;35.86
74534;SHT31;63012;51.096;-115.366;2023-05-16T08:40:38;20.53;35.81
74534;SHT31;63012;51.096;-115.366;2023-05-16T08:43:07;20.49;35.84
74534;SHT31;63012;51.096;-115.366;2023-05-16T08:45:34;20.48;35.91
74534;SHT31;63012;51.096;-115.366;2023-05-16T08:48:01;20.45;35.90
74534;SHT31;63012;51.096;-115.366;2023-05-16T08:50:31;20.43;35.91
74534;SHT31;63012;51.096;-115.366;2023-05-16T08:52:57;20.43;36.09
74534;SHT31;63012;51.096;-115.366;2023-05-16T08:55:32;20.42;36.24
74534;SHT31;63012;51.096;-115.366;2023-05-16T08:58:01;20.41;36.24
74534;SHT31;63012;51.096;-115.366;2023-05-16T09:00:29;20.40;36.39
74534;SHT31;63012;51.096;-115.366;2023-05-16T09:02:57;20.39;36.58
74534;SHT31;63012;51.096;-115.366;2023-05-16T09:05:25;20.39;36.42
74534;SHT31;63012;51.096;-115.366;2023-05-16T09:07:55;20.36;36.30
74534;SHT31;63012;51.096;-115.366;2023-05-16T09:10:22;20.34;36.36
74534;SHT31;63012;51.096;-115.366;2023-05-16T09:12:49;20.33;36.27
74534;SHT31;63012;51.096;-115.366;2023-05-16T09:15:17;20.30;36.40
74534;SHT31;63012;51.096;-115.366;2023-05-16T09:17:47;20.27;36.47
74534;SHT31;63012;51.096;-115.366;2023-05-16T09:20:15;20.25;36.38
74534;SHT31;63012;51.096;-115.366;2023-05-16T09:22:51;20.21;36.45
74534;SHT31;63012;51.096;-115.366;2023-05-16T09:25:21;20.17;36.64
74534;SHT31;63012;51.096;-115.366;2023-05-16T09:27:53;20.14;36.68
74534;SHT31;63012;51.096;-115.366;2023-05-16T09:30:22;20.11;36.57
74534;SHT31;63012;51.096;-115.366;2023-05-16T09:32:56;20.08;36.58
74534;SHT31;63012;51.096;-115.366;2023-05-16T09:35:23;20.04;36.59
74534;SHT31;63012;51.096;-115.366;2023-05-16T09:37:51;20.02;36.60
74534;SHT31;63012;51.096;-115.366;2023-05-16T09:40:22;20.00;36.71
74534;SHT31;63012;51.096;-115.366;2023-05-16T09:43:07;19.97;36.82
74534;SHT31;63012;51.096;-115.366;2023-05-16T09:45:34;19.95;36.84
74534;SHT31;63012;51.096;-115.366;2023-05-16T09:48:05;19.92;36.90
74534;SHT31;63012;51.096;-115.366;2023-05-16T09:50:37;19.91;36.92
74534;SHT31;63012;51.096;-115.366;2023-05-16T09:53:05;19.89;36.76
74534;SHT31;63012;51.096;-115.366;2023-05-16T09:55:32;19.86;36.73
74534;SHT31;63012;51.096;-115.366;2023-05-16T09:57:59;19.85;36.89
74534;SHT31;63012;51.096;-115.366;2023-05-16T10:00:30;19.82;36.80
74534;SHT31;63012;51.096;-115.366;2023-05-16T10:02:59;19.80;36.80
74534;SHT31;63012;51.096;-115.366;2023-05-16T10:05:27;19.78;36.85
74534;SHT31;63012;51.096;-115.366;2023-05-16T10:07:56;19.75;36.77
74534;SHT31;63012;51.096;-115.366;2023-05-16T10:10:24;19.71;36.64
74534;SHT31;63012;51.096;-115.366;2023-05-16T10:12:52;19.69;36.68
74534;SHT31;63012;51.096;-115.366;2023-05-16T10:15:25;19.65;36.63
74534;SHT31;63012;51.096;-115.366;2023-05-16T10:17:53;19.63;36.69
74534;SHT31;63012;51.096;-115.366;2023-05-16T10:20:26;19.61;36.79
74534;SHT31;63012;51.096;-115.366;2023-05-16T10:22:54;19.59;36.79
74534;SHT31;63012;51.096;-115.366;2023-05-16T10:25:24;19.57;36.73
74534;SHT31;63012;51.096;-115.366;2023-05-16T10:28:03;19.56;36.75
74534;SHT31;63012;51.096;-115.366;2023-05-16T10:30:34;19.55;36.78
74534;SHT31;63012;51.096;-115.366;2023-05-16T10:33:12;19.53;36.66
74534;SHT31;63012;51.096;-115.366;2023-05-16T10:35:43;19.51;36.68
74534;SHT31;63012;51.096;-115.366;2023-05-16T10:38:11;19.51;36.60
74534;SHT31;63012;51.096;-115.366;2023-05-16T10:40:42;19.49;36.50
74534;SHT31;63012;51.096;-115.366;2023-05-16T10:43:13;19.48;36.54
74534;SHT31;63012;51.096;-115.366;2023-05-16T10:48:35;19.43;36.50
74534;SHT31;63012;51.096;-115.366;2023-05-16T10:54:06;19.39;36.67
74534;SHT31;63012;51.096;-115.366;2023-05-16T10:56:37;19.38;36.62
74534;SHT31;63012;51.096;-115.366;2023-05-16T10:59:04;19.35;36.62
74534;SHT31;63012;51.096;-115.366;2023-05-16T11:01:54;19.32;36.59
74534;SHT31;63012;51.096;-115.366;2023-05-16T11:04:21;19.29;36.70
74534;SHT31;63012;51.096;-115.366;2023-05-16T11:06:49;19.27;36.72
74534;SHT31;63012;51.096;-115.366;2023-05-16T11:14:35;19.20;36.85
74534;SHT31;63012;51.096;-115.366;2023-05-16T11:17:13;19.18;36.94
74534;SHT31;63012;51.096;-115.366;2023-05-16T11:19:47;19.15;36.94
74534;SHT31;63012;51.096;-115.366;2023-05-16T11:22:35;19.15;37.06
74534;SHT31;63012;51.096;-115.366;2023-05-16T11:25:08;19.15;37.00
74534;SHT31;63012;51.096;-115.366;2023-05-16T11:27:45;19.16;36.96
74534;SHT31;63012;51.096;-115.366;2023-05-16T11:30:13;19.18;36.92
74534;SHT31;63012;51.096;-115.366;2023-05-16T11:32:44;19.19;36.95
74534;SHT31;63012;51.096;-115.366;2023-05-16T11:35:16;19.18;36.85
74534;SHT31;63012;51.096;-115.366;2023-05-16T11:37:44;19.20;36.84
74534;SHT31;63012;51.096;-115.366;2023-05-16T11:40:13;19.22;36.82
74534;SHT31;63012;51.096;-115.366;2023-05-16T11:42:45;19.23;36.76
74534;SHT31;63012;51.096;-115.366;2023-05-16T11:45:17;19.20;36.64
74534;SHT31;63012;51.096;-115.366;2023-05-16T11:47:49;19.18;36.52
74534;SHT31;63012;51.096;-115.366;2023-05-16T11:50:20;19.17;36.52
74534;SHT31;63012;51.096;-115.366;2023-05-16T11:52:48;19.15;36.49
74534;SHT31;63012;51.096;-115.366;2023-05-16T11:55:23;19.10;36.61
74534;SHT31;63012;51.096;-115.366;2023-05-16T11:57:57;19.08;36.72
74534;SHT31;63012;51.096;-115.366;2023-05-16T12:00:25;19.05;36.83
74534;SHT31;63012;51.096;-115.366;2023-05-16T12:02:53;19.00;36.88
74534;SHT31;63012;51.096;-115.366;2023-05-16T12:05:27;18.97;36.99
74534;SHT31;63012;51.096;-115.366;2023-05-16T12:07:55;18.93;36.96
74534;SHT31;63012;51.096;-115.366;2023-05-16T12:10:24;18.90;37.01
74534;SHT31;63012;51.096;-115.366;2023-05-16T12:12:51;18.86;37.05
74534;SHT31;63012;51.096;-115.366;2023-05-16T12:15:19;18.83;37.08
74534;SHT31;63012;51.096;-115.366;2023-05-16T12:17:46;18.80;37.08
74534;SHT31;63012;51.096;-115.366;2023-05-16T12:20:14;18.76;37.13
74534;SHT31;63012;51.096;-115.366;2023-05-16T12:22:45;18.73;37.20
74534;SHT31;63012;51.096;-115.366;2023-05-16T12:25:21;18.69;37.27
74534;SHT31;63012;51.096;-115.366;2023-05-16T12:28:02;18.66;37.46
74534;SHT31;63012;51.096;-115.366;2023-05-16T12:30:32;18.64;37.54
74534;SHT31;63012;51.096;-115.366;2023-05-16T12:35:34;18.58;37.55
74534;SHT31;63012;51.096;-115.366;2023-05-16T12:38:04;18.55;37.67
74534;SHT31;63012;51.096;-115.366;2023-05-16T12:40:35;18.53;37.73
74534;SHT31;63012;51.096;-115.366;2023-05-16T12:43:13;18.50;37.79
74534;SHT31;63012;51.096;-115.366;2023-05-16T12:45:56;18.47;37.88
74534;SHT31;63012;51.096;-115.366;2023-05-16T12:48:31;18.44;37.90
74534;SHT31;63012;51.096;-115.366;2023-05-16T12:51:16;18.41;37.98
74534;SHT31;63012;51.096;-115.366;2023-05-16T12:53:47;18.39;38.02
74534;SHT31;63012;51.096;-115.366;2023-05-16T12:56:15;18.37;38.17
74534;SHT31;63012;51.096;-115.366;2023-05-16T12:58:42;18.36;38.19
74534;SHT31;63012;51.096;-115.366;2023-05-16T13:01:09;18.35;38.19
74534;SHT31;63012;51.096;-115.366;2023-05-16T13:03:36;18.33;38.26
74534;SHT31;63012;51.096;-115.366;2023-05-16T13:06:04;18.32;38.29
74534;SHT31;63012;51.096;-115.366;2023-05-16T13:08:31;18.30;38.34
74534;SHT31;63012;51.096;-115.366;2023-05-16T13:10:58;18.28;38.40
74534;SHT31;63012;51.096;-115.366;2023-05-16T13:13:25;18.26;38.39
74534;SHT31;63012;51.096;-115.366;2023-05-16T13:15:51;18.26;38.45
74534;SHT31;63012;51.096;-115.366;2023-05-16T13:18:19;18.23;38.54
74534;SHT31;63012;51.096;-115.366;2023-05-16T13:20:46;18.22;38.64
74534;SHT31;63012;51.096;-115.366;2023-05-16T13:23:13;18.22;38.75
74534;SHT31;63012;51.096;-115.366;2023-05-16T13:25:40;18.20;38.76
74534;SHT31;63012;51.096;-115.366;2023-05-16T13:28:08;18.19;38.70
74534;SHT31;63012;51.096;-115.366;2023-05-16T13:30:35;18.17;38.79
74534;SHT31;63012;51.096;-115.366;2023-05-16T13:33:02;18.16;38.88
74534;SHT31;63012;51.096;-115.366;2023-05-16T13:35:29;18.15;38.90
74534;SHT31;63012;51.096;-115.366;2023-05-16T13:37:56;18.14;38.98
74534;SHT31;63012;51.096;-115.366;2023-05-16T13:40:23;18.12;38.95
74534;SHT31;63012;51.096;-115.366;2023-05-16T13:42:50;18.11;38.84
74534;SHT31;63012;51.096;-115.366;2023-05-16T13:45:17;18.10;38.89
74534;SHT31;63012;51.096;-115.366;2023-05-16T13:47:44;18.09;39.00
74534;SHT31;63012;51.096;-115.366;2023-05-16T13:50:11;18.09;39.13
74534;SHT31;63012;51.096;-115.366;2023-05-16T13:52:38;18.09;39.23
74534;SHT31;63012;51.096;-115.366;2023-05-16T13:55:05;18.09;39.31
74534;SHT31;63012;51.096;-115.366;2023-05-16T13:57:32;18.09;39.29
74534;SHT31;63012;51.096;-115.366;2023-05-16T14:00:00;18.08;39.41
74534;SHT31;63012;51.096;-115.366;2023-05-16T14:02:37;18.08;39.57
74534;SHT31;63012;51.096;-115.366;2023-05-16T14:05:07;18.07;39.61
74534;SHT31;63012;51.096;-115.366;2023-05-16T14:07:35;18.06;39.62
74534;SHT31;63012;51.096;-115.366;2023-05-16T14:10:02;18.06;39.53
74534;SHT31;63012;51.096;-115.366;2023-05-16T14:12:30;18.07;39.60
74534;SHT31;63012;51.096;-115.366;2023-05-16T14:14:58;18.05;39.84
74534;SHT31;63012;51.096;-115.366;2023-05-16T14:17:25;18.06;39.93
74534;SHT31;63012;51.096;-115.366;2023-05-16T14:19:52;18.06;40.01
74534;SHT31;63012;51.096;-115.366;2023-05-16T14:22:19;18.06;39.98
74534;SHT31;63012;51.096;-115.366;2023-05-16T14:24:47;18.06;39.88
74534;SHT31;63012;51.096;-115.366;2023-05-16T14:27:14;18.06;40.10
74534;SHT31;63012;51.096;-115.366;2023-05-16T14:29:41;18.06;40.23
74534;SHT31;63012;51.096;-115.366;2023-05-16T14:32:09;18.05;40.34
74534;SHT31;63012;51.096;-115.366;2023-05-16T14:34:37;18.06;40.51
74534;SHT31;63012;51.096;-115.366;2023-05-16T14:37:04;18.06;40.51
74534;SHT31;63012;51.096;-115.366;2023-05-16T14:39:31;18.07;40.69
74534;SHT31;63012;51.096;-115.366;2023-05-16T14:41:58;18.08;40.64
74534;SHT31;63012;51.096;-115.366;2023-05-16T14:44:25;18.07;40.24
74534;SHT31;63012;51.096;-115.366;2023-05-16T14:46:52;18.07;39.96
74534;SHT31;63012;51.096;-115.366;2023-05-16T14:49:19;18.07;40.38
74534;SHT31;63012;51.096;-115.366;2023-05-16T14:51:46;18.08;40.35
74534;SHT31;63012;51.096;-115.366;2023-05-16T14:54:16;18.09;40.26
74534;SHT31;63012;51.096;-115.366;2023-05-16T14:56:43;18.09;40.31
74534;SHT31;63012;51.096;-115.366;2023-05-16T14:59:10;18.09;40.27
74534;SHT31;63012;51.096;-115.366;2023-05-16T15:01:37;18.08;40.26
74534;SHT31;63012;51.096;-115.366;2023-05-16T15:04:05;18.09;40.35
74534;SHT31;63012;51.096;-115.366;2023-05-16T15:06:32;18.10;40.66
74534;SHT31;63012;51.096;-115.366;2023-05-16T15:09:00;18.10;40.59
74534;SHT31;63012;51.096;-115.366;2023-05-16T15:11:28;18.10;40.55
74534;SHT31;63012;51.096;-115.366;2023-05-16T15:13:56;18.11;40.47
74534;SHT31;63012;51.096;-115.366;2023-05-16T15:16:23;18.11;40.55
74534;SHT31;63012;51.096;-115.366;2023-05-16T15:18:51;18.12;40.59
74534;SHT31;63012;51.096;-115.366;2023-05-16T15:21:17;18.13;40.57
74534;SHT31;63012;51.096;-115.366;2023-05-16T15:23:45;18.13;40.59
74534;SHT31;63012;51.096;-115.366;2023-05-16T15:26:11;18.14;40.69
74534;SHT31;63012;51.096;-115.366;2023-05-16T15:28:39;18.15;40.87